sensor_id;sensor_type;location;lat;lon;timestamp;temperature;humidity
46091;DHT22;31826;53.572;10.170;2023-02-15T00:00:20;4.00;99.90
46091;DHT22;31826;53.572;10.170;2023-02-15T00:02:45;4.10;99.90
46091;DHT22;31826;53.572;10.170;2023-02-15T00:05:11;4.10;99.90
46091;DHT22;31826;53.572;10.170;2023-02-15T00:07:37;4.00;99.90
46091;DHT22;31826;53.572;10.170;2023-02-15T00:10:03;4.00;99.90
46091;DHT22;31826;53.572;10.170;2023-02-15T00:12:29;4.00;99.90
46091;DHT22;31826;53.572;10.170;2023-02-15T00:14:55;4.00;99.90
46091;DHT22;31826;53.572;10.170;2023-02-15T00:17:21;4.10;99.90
46091;DHT22;31826;53.572;10.170;2023-02-15T00:19:47;4.10;99.90
46091;DHT22;31826;53.572;10.170;2023-02-15T00:22:12;4.10;99.90
46091;DHT22;31826;53.572;10.170;2023-02-15T00:24:38;4.10;99.90
46091;DHT22;31826;53.572;10.170;2023-02-15T00:27:04;4.10;99.90
46091;DHT22;31826;53.572;10.170;2023-02-15T00:29:29;4.10;99.90
46091;DHT22;31826;53.572;10.170;2023-02-15T00:31:55;4.10;99.90
46091;DHT22;31826;53.572;10.170;2023-02-15T00:34:27;4.10;99.90
46091;DHT22;31826;53.572;10.170;2023-02-15T00:36:53;4.10;99.90
46091;DHT22;31826;53.572;10.170;2023-02-15T00:39:19;4.00;99.90
46091;DHT22;31826;53.572;10.170;2023-02-15T00:41:45;4.10;99.90
46091;DHT22;31826;53.572;10.170;2023-02-15T00:44:12;4.10;99.90
46091;DHT22;31826;53.572;10.170;2023-02-15T00:46:38;4.10;99.90
46091;DHT22;31826;53.572;10.170;2023-02-15T00:49:04;4.10;99.90
46091;DHT22;31826;53.572;10.170;2023-02-15T00:51:30;4.20;99.90
46091;DHT22;31826;53.572;10.170;2023-02-15T00:53:56;4.10;99.90
46091;DHT22;31826;53.572;10.170;2023-02-15T00:56:21;4.20;99.90
46091;DHT22;31826;53.572;10.170;2023-02-15T00:58:47;4.20;99.90
46091;DHT22;31826;53.572;10.170;2023-02-15T01:01:18;4.20;99.90
46091;DHT22;31826;53.572;10.170;2023-02-15T01:03:44;4.30;99.90
46091;DHT22;31826;53.572;10.170;2023-02-15T01:06:12;4.30;99.90
46091;DHT22;31826;53.572;10.170;2023-02-15T01:08:38;4.30;99.90
46091;DHT22;31826;53.572;10.170;2023-02-15T01:11:07;4.30;99.90
46091;DHT22;31826;53.572;10.170;2023-02-15T01:13:33;4.20;99.90
46091;DHT22;31826;53.572;10.170;2023-02-15T01:15:59;4.20;99.90
46091;DHT22;31826;53.572;10.170;2023-02-15T01:18:25;4.20;99.90
46091;DHT22;31826;53.572;10.170;2023-02-15T01:20:52;4.20;99.90
46091;DHT22;31826;53.572;10.170;2023-02-15T01:23:18;4.10;99.90
46091;DHT22;31826;53.572;10.170;2023-02-15T01:25:43;4.10;99.90
46091;DHT22;31826;53.572;10.170;2023-02-15T01:28:09;4.10;99.90
46091;DHT22;31826;53.572;10.170;2023-02-15T01:30:35;4.20;99.90
46091;DHT22;31826;53.572;10.170;2023-02-15T01:33:01;4.10;99.90
46091;DHT22;31826;53.572;10.170;2023-02-15T01:35:28;4.10;99.90
46091;DHT22;31826;53.572;10.170;2023-02-15T01:37:54;4.10;99.90
46091;DHT22;31826;53.572;10.170;2023-02-15T01:40:20;4.10;99.90
46091;DHT22;31826;53.572;10.170;2023-02-15T01:42:50;4.00;99.90
46091;DHT22;31826;53.572;10.170;2023-02-15T01:45:29;4.10;99.90
46091;DHT22;31826;53.572;10.170;2023-02-15T01:47:58;4.10;99.90
46091;DHT22;31826;53.572;10.170;2023-02-15T01:53:15;4.10;99.90
46091;DHT22;31826;53.572;10.170;2023-02-15T01:55:53;4.00;99.90
46091;DHT22;31826;53.572;10.170;2023-02-15T01:58:20;4.10;99.90
46091;DHT22;31826;53.572;10.170;2023-02-15T02:00:47;4.10;99.90
46091;DHT22;31826;53.572;10.170;2023-02-15T02:03:13;4.10;99.90
46091;DHT22;31826;53.572;10.170;2023-02-15T02:05:39;4.20;99.90
46091;DHT22;31826;53.572;10.170;2023-02-15T02:08:07;4.20;99.90
46091;DHT22;31826;53.572;10.170;2023-02-15T02:10:35;4.10;99.90
46091;DHT22;31826;53.572;10.170;2023-02-15T02:13:04;4.10;99.90
46091;DHT22;31826;53.572;10.170;2023-02-15T02:18:29;4.00;99.90
46091;DHT22;31826;53.572;10.170;2023-02-15T02:21:48;3.90;99.90
46091;DHT22;31826;53.572;10.170;2023-02-15T02:35:01;3.90;99.90
46091;DHT22;31826;53.572;10.170;2023-02-15T02:43:11;3.80;99.90
46091;DHT22;31826;53.572;10.170;2023-02-15T02:45:53;3.70;99.90
46091;DHT22;31826;53.572;10.170;2023-02-15T02:48:24;3.60;99.90
46091;DHT22;31826;53.572;10.170;2023-02-15T02:50:51;3.60;99.90
46091;DHT22;31826;53.572;10.170;2023-02-15T02:53:16;3.50;99.90
46091;DHT22;31826;53.572;10.170;2023-02-15T02:56:11;3.50;99.90
46091;DHT22;31826;53.572;10.170;2023-02-15T02:58:48;3.60;99.90
46091;DHT22;31826;53.572;10.170;2023-02-15T03:01:39;3.60;99.90
46091;DHT22;31826;53.572;10.170;2023-02-15T03:04:36;3.50;99.90
46091;DHT22;31826;53.572;10.170;2023-02-15T03:07:09;3.60;99.90
46091;DHT22;31826;53.572;10.170;2023-02-15T03:09:42;3.50;99.90
46091;DHT22;31826;53.572;10.170;2023-02-15T03:12:29;3.50;99.90
46091;DHT22;31826;53.572;10.170;2023-02-15T03:15:20;3.50;99.90
46091;DHT22;31826;53.572;10.170;2023-02-15T03:17:54;3.50;99.90
46091;DHT22;31826;53.572;10.170;2023-02-15T03:20:27;3.50;99.90
46091;DHT22;31826;53.572;10.170;2023-02-15T03:25:44;3.50;99.90
46091;DHT22;31826;53.572;10.170;2023-02-15T03:28:15;3.40;99.90
46091;DHT22;31826;53.572;10.170;2023-02-15T03:30:45;3.40;99.90
46091;DHT22;31826;53.572;10.170;2023-02-15T03:33:15;3.40;99.90
46091;DHT22;31826;53.572;10.170;2023-02-15T03:38:50;3.30;99.90
46091;DHT22;31826;53.572;10.170;2023-02-15T03:41:19;3.30;99.90
46091;DHT22;31826;53.572;10.170;2023-02-15T03:43:55;3.30;99.90
46091;DHT22;31826;53.572;10.170;2023-02-15T03:46:32;3.30;99.90
46091;DHT22;31826;53.572;10.170;2023-02-15T03:51:54;3.30;99.90
46091;DHT22;31826;53.572;10.170;2023-02-15T03:54:26;3.20;99.90
46091;DHT22;31826;53.572;10.170;2023-02-15T03:57:19;3.20;99.90
46091;DHT22;31826;53.572;10.170;2023-02-15T04:00:21;3.20;99.90
46091;DHT22;31826;53.572;10.170;2023-02-15T04:03:17;3.20;99.90
46091;DHT22;31826;53.572;10.170;2023-02-15T04:05:46;3.10;99.90
46091;DHT22;31826;53.572;10.170;2023-02-15T04:08:12;3.10;99.90
46091;DHT22;31826;53.572;10.170;2023-02-15T04:10:38;3.10;99.90
46091;DHT22;31826;53.572;10.170;2023-02-15T04:13:23;3.10;99.90
46091;DHT22;31826;53.572;10.170;2023-02-15T04:15:49;3.30;99.90
46091;DHT22;31826;53.572;10.170;2023-02-15T04:18:37;3.20;99.90
46091;DHT22;31826;53.572;10.170;2023-02-15T04:21:23;3.00;99.90
46091;DHT22;31826;53.572;10.170;2023-02-15T04:24:08;3.00;99.90
46091;DHT22;31826;53.572;10.170;2023-02-15T04:26:52;3.00;99.90
46091;DHT22;31826;53.572;10.170;2023-02-15T04:29:19;3.00;99.90
46091;DHT22;31826;53.572;10.170;2023-02-15T04:31:46;3.00;99.90
46091;DHT22;31826;53.572;10.170;2023-02-15T04:34:12;2.90;99.90
46091;DHT22;31826;53.572;10.170;2023-02-15T04:36:38;3.00;99.90
46091;DHT22;31826;53.572;10.170;2023-02-15T04:39:05;2.90;99.90
46091;DHT22;31826;53.572;10.170;2023-02-15T04:41:31;2.90;99.90
46091;DHT22;31826;53.572;10.170;2023-02-15T04:43:56;2.80;99.90
46091;DHT22;31826;53.572;10.170;2023-02-15T04:46:22;2.70;99.90
46091;DHT22;31826;53.572;10.170;2023-02-15T04:48:48;2.70;99.90
46091;DHT22;31826;53.572;10.170;2023-02-15T04:51:14;2.70;99.90
46091;DHT22;31826;53.572;10.170;2023-02-15T04:53:40;2.70;99.90
46091;DHT22;31826;53.572;10.170;2023-02-15T04:56:05;2.60;99.90
46091;DHT22;31826;53.572;10.170;2023-02-15T04:58:31;2.60;99.90
46091;DHT22;31826;53.572;10.170;2023-02-15T05:00:57;2.60;99.90
46091;DHT22;31826;53.572;10.170;2023-02-15T05:03:24;2.70;99.90
46091;DHT22;31826;53.572;10.170;2023-02-15T05:05:50;2.60;99.90
46091;DHT22;31826;53.572;10.170;2023-02-15T05:08:16;2.50;99.90
46091;DHT22;31826;53.572;10.170;2023-02-15T05:10:42;2.50;99.90
46091;DHT22;31826;53.572;10.170;2023-02-15T05:13:07;2.50;99.90
46091;DHT22;31826;53.572;10.170;2023-02-15T05:15:33;2.60;99.90
46091;DHT22;31826;53.572;10.170;2023-02-15T05:17:59;2.50;99.90
46091;DHT22;31826;53.572;10.170;2023-02-15T05:20:24;2.40;99.90
46091;DHT22;31826;53.572;10.170;2023-02-15T05:22:53;2.30;99.90
46091;DHT22;31826;53.572;10.170;2023-02-15T05:25:19;2.10;99.90
46091;DHT22;31826;53.572;10.170;2023-02-15T05:28:04;2.20;99.90
46091;DHT22;31826;53.572;10.170;2023-02-15T05:30:48;2.30;99.90
46091;DHT22;31826;53.572;10.170;2023-02-15T05:33:14;2.20;99.90
46091;DHT22;31826;53.572;10.170;2023-02-15T05:35:40;2.20;99.90
46091;DHT22;31826;53.572;10.170;2023-02-15T05:38:06;2.20;99.90
46091;DHT22;31826;53.572;10.170;2023-02-15T05:40:32;2.20;99.90
46091;DHT22;31826;53.572;10.170;2023-02-15T05:42:58;2.20;99.90
46091;DHT22;31826;53.572;10.170;2023-02-15T05:45:24;2.00;99.90
46091;DHT22;31826;53.572;10.170;2023-02-15T05:47:49;2.10;99.90
46091;DHT22;31826;53.572;10.170;2023-02-15T05:50:15;2.00;99.90
46091;DHT22;31826;53.572;10.170;2023-02-15T05:52:41;2.00;99.90
46091;DHT22;31826;53.572;10.170;2023-02-15T05:55:07;2.00;99.90
46091;DHT22;31826;53.572;10.170;2023-02-15T05:57:34;2.10;99.90
46091;DHT22;31826;53.572;10.170;2023-02-15T06:00:02;2.10;99.90
46091;DHT22;31826;53.572;10.170;2023-02-15T06:02:33;2.10;99.90
46091;DHT22;31826;53.572;10.170;2023-02-15T06:04:58;2.00;99.90
46091;DHT22;31826;53.572;10.170;2023-02-15T06:07:24;2.00;99.90
46091;DHT22;31826;53.572;10.170;2023-02-15T06:09:50;2.00;99.90
46091;DHT22;31826;53.572;10.170;2023-02-15T06:12:16;2.00;99.90
46091;DHT22;31826;53.572;10.170;2023-02-15T06:14:41;1.90;99.90
46091;DHT22;31826;53.572;10.170;2023-02-15T06:17:07;1.70;99.90
46091;DHT22;31826;53.572;10.170;2023-02-15T06:19:33;1.70;99.90
46091;DHT22;31826;53.572;10.170;2023-02-15T06:21:58;1.80;99.90
46091;DHT22;31826;53.572;10.170;2023-02-15T06:24:24;1.70;99.90
46091;DHT22;31826;53.572;10.170;2023-02-15T06:26:50;1.80;99.90
46091;DHT22;31826;53.572;10.170;2023-02-15T06:29:15;1.70;99.90
46091;DHT22;31826;53.572;10.170;2023-02-15T06:31:41;1.70;99.90
46091;DHT22;31826;53.572;10.170;2023-02-15T06:34:07;1.70;99.90
46091;DHT22;31826;53.572;10.170;2023-02-15T06:36:33;1.80;99.90
46091;DHT22;31826;53.572;10.170;2023-02-15T06:38:58;1.90;99.90
46091;DHT22;31826;53.572;10.170;2023-02-15T06:41:24;1.90;99.90
46091;DHT22;31826;53.572;10.170;2023-02-15T06:43:50;1.80;99.90
46091;DHT22;31826;53.572;10.170;2023-02-15T06:46:16;1.80;99.90
46091;DHT22;31826;53.572;10.170;2023-02-15T06:48:42;1.80;99.90
46091;DHT22;31826;53.572;10.170;2023-02-15T06:51:08;1.90;99.90
46091;DHT22;31826;53.572;10.170;2023-02-15T06:53:33;1.80;99.90
46091;DHT22;31826;53.572;10.170;2023-02-15T06:56:06;1.80;99.90
46091;DHT22;31826;53.572;10.170;2023-02-15T06:58:40;2.00;99.90
46091;DHT22;31826;53.572;10.170;2023-02-15T07:01:07;2.00;99.90
46091;DHT22;31826;53.572;10.170;2023-02-15T07:03:34;1.90;99.90
46091;DHT22;31826;53.572;10.170;2023-02-15T07:06:01;2.00;99.90
46091;DHT22;31826;53.572;10.170;2023-02-15T07:08:27;1.90;99.90
46091;DHT22;31826;53.572;10.170;2023-02-15T07:10:55;1.80;99.90
46091;DHT22;31826;53.572;10.170;2023-02-15T07:13:41;1.80;99.90
46091;DHT22;31826;53.572;10.170;2023-02-15T07:16:08;1.80;99.90
46091;DHT22;31826;53.572;10.170;2023-02-15T07:18:35;1.70;99.90
46091;DHT22;31826;53.572;10.170;2023-02-15T07:21:01;1.70;99.90
46091;DHT22;31826;53.572;10.170;2023-02-15T07:23:27;1.70;99.90
46091;DHT22;31826;53.572;10.170;2023-02-15T07:25:59;1.70;99.90
46091;DHT22;31826;53.572;10.170;2023-02-15T07:28:25;1.70;99.90
46091;DHT22;31826;53.572;10.170;2023-02-15T07:30:51;1.80;99.90
46091;DHT22;31826;53.572;10.170;2023-02-15T07:33:17;1.70;99.90
46091;DHT22;31826;53.572;10.170;2023-02-15T07:35:54;1.70;99.90
46091;DHT22;31826;53.572;10.170;2023-02-15T07:38:21;1.70;99.90
46091;DHT22;31826;53.572;10.170;2023-02-15T07:40:47;1.60;99.90
46091;DHT22;31826;53.572;10.170;2023-02-15T07:43:13;1.60;99.90
46091;DHT22;31826;53.572;10.170;2023-02-15T07:45:39;1.80;99.90
46091;DHT22;31826;53.572;10.170;2023-02-15T07:48:06;1.90;99.90
46091;DHT22;31826;53.572;10.170;2023-02-15T07:50:33;1.80;99.90
46091;DHT22;31826;53.572;10.170;2023-02-15T07:53:00;1.90;99.90
46091;DHT22;31826;53.572;10.170;2023-02-15T07:55:26;2.00;99.90
46091;DHT22;31826;53.572;10.170;2023-02-15T07:57:52;1.90;99.90
46091;DHT22;31826;53.572;10.170;2023-02-15T08:00:20;1.90;99.90
46091;DHT22;31826;53.572;10.170;2023-02-15T08:02:54;2.10;99.90
46091;DHT22;31826;53.572;10.170;2023-02-15T08:05:44;1.90;99.90
46091;DHT22;31826;53.572;10.170;2023-02-15T08:08:11;1.80;99.90
46091;DHT22;31826;53.572;10.170;2023-02-15T08:11:02;1.80;99.90
46091;DHT22;31826;53.572;10.170;2023-02-15T08:13:49;1.70;99.90
46091;DHT22;31826;53.572;10.170;2023-02-15T08:18:53;1.80;99.90
46091;DHT22;31826;53.572;10.170;2023-02-15T08:21:20;1.70;99.90
46091;DHT22;31826;53.572;10.170;2023-02-15T08:23:46;1.60;99.90
46091;DHT22;31826;53.572;10.170;2023-02-15T08:26:12;1.60;99.90
46091;DHT22;31826;53.572;10.170;2023-02-15T08:28:39;1.80;99.90
46091;DHT22;31826;53.572;10.170;2023-02-15T08:31:09;2.00;99.90
46091;DHT22;31826;53.572;10.170;2023-02-15T08:33:36;1.90;99.90
46091;DHT22;31826;53.572;10.170;2023-02-15T08:36:07;1.90;99.90
46091;DHT22;31826;53.572;10.170;2023-02-15T08:38:34;1.80;99.90
46091;DHT22;31826;53.572;10.170;2023-02-15T08:43:46;1.60;99.90
46091;DHT22;31826;53.572;10.170;2023-02-15T08:46:14;1.60;99.90
46091;DHT22;31826;53.572;10.170;2023-02-15T08:48:40;1.70;99.90
46091;DHT22;31826;53.572;10.170;2023-02-15T08:51:14;1.80;99.90
46091;DHT22;31826;53.572;10.170;2023-02-15T08:53:42;1.80;99.90
46091;DHT22;31826;53.572;10.170;2023-02-15T08:56:10;1.70;99.90
46091;DHT22;31826;53.572;10.170;2023-02-15T08:58:36;1.70;99.90
46091;DHT22;31826;53.572;10.170;2023-02-15T09:01:09;1.70;99.90
46091;DHT22;31826;53.572;10.170;2023-02-15T09:03:35;1.70;99.90
46091;DHT22;31826;53.572;10.170;2023-02-15T09:06:01;1.40;99.90
46091;DHT22;31826;53.572;10.170;2023-02-15T09:08:27;1.40;99.90
46091;DHT22;31826;53.572;10.170;2023-02-15T09:10:53;1.50;99.90
46091;DHT22;31826;53.572;10.170;2023-02-15T09:13:20;1.50;99.90
46091;DHT22;31826;53.572;10.170;2023-02-15T09:15:46;1.60;99.90
46091;DHT22;31826;53.572;10.170;2023-02-15T09:18:12;1.70;99.90
46091;DHT22;31826;53.572;10.170;2023-02-15T09:20:43;1.70;99.90
46091;DHT22;31826;53.572;10.170;2023-02-15T09:23:09;1.70;99.90
46091;DHT22;31826;53.572;10.170;2023-02-15T09:25:35;1.70;99.90
46091;DHT22;31826;53.572;10.170;2023-02-15T09:28:01;1.60;99.90
46091;DHT22;31826;53.572;10.170;2023-02-15T09:30:27;1.70;99.90
46091;DHT22;31826;53.572;10.170;2023-02-15T09:32:52;1.70;99.90
46091;DHT22;31826;53.572;10.170;2023-02-15T09:35:18;1.70;99.90
46091;DHT22;31826;53.572;10.170;2023-02-15T09:37:44;1.80;99.90
46091;DHT22;31826;53.572;10.170;2023-02-15T09:40:12;1.80;99.90
46091;DHT22;31826;53.572;10.170;2023-02-15T09:45:25;2.00;99.90
46091;DHT22;31826;53.572;10.170;2023-02-15T09:48:20;2.10;99.90
46091;DHT22;31826;53.572;10.170;2023-02-15T09:56:21;2.30;99.90
46091;DHT22;31826;53.572;10.170;2023-02-15T09:59:38;2.20;99.90
46091;DHT22;31826;53.572;10.170;2023-02-15T10:07:19;2.20;99.90
46091;DHT22;31826;53.572;10.170;2023-02-15T10:15:33;2.30;99.90
46091;DHT22;31826;53.572;10.170;2023-02-15T10:21:06;2.60;99.90
46091;DHT22;31826;53.572;10.170;2023-02-15T10:26:22;2.60;99.90
46091;DHT22;31826;53.572;10.170;2023-02-15T10:28:57;2.30;99.90
46091;DHT22;31826;53.572;10.170;2023-02-15T10:34:18;2.40;99.90
46091;DHT22;31826;53.572;10.170;2023-02-15T10:50:56;2.70;99.90
46091;DHT22;31826;53.572;10.170;2023-02-15T11:06:57;3.20;99.90
46091;DHT22;31826;53.572;10.170;2023-02-15T11:09:27;3.20;99.90
46091;DHT22;31826;53.572;10.170;2023-02-15T11:11:56;3.20;99.90
46091;DHT22;31826;53.572;10.170;2023-02-15T11:14:40;3.20;99.90
46091;DHT22;31826;53.572;10.170;2023-02-15T11:17:16;3.00;99.90
46091;DHT22;31826;53.572;10.170;2023-02-15T11:20:25;3.00;99.90
46091;DHT22;31826;53.572;10.170;2023-02-15T11:22:47;3.00;99.90
46091;DHT22;31826;53.572;10.170;2023-02-15T11:25:27;3.10;99.90
46091;DHT22;31826;53.572;10.170;2023-02-15T11:27:55;3.10;99.90
46091;DHT22;31826;53.572;10.170;2023-02-15T11:30:25;3.00;99.90
46091;DHT22;31826;53.572;10.170;2023-02-15T11:32:56;3.10;99.90
46091;DHT22;31826;53.572;10.170;2023-02-15T11:38:02;3.10;99.90
46091;DHT22;31826;53.572;10.170;2023-02-15T11:46:18;3.50;99.90
46091;DHT22;31826;53.572;10.170;2023-02-15T11:48:46;3.70;99.90
46091;DHT22;31826;53.572;10.170;2023-02-15T11:51:14;3.50;99.90
46091;DHT22;31826;53.572;10.170;2023-02-15T11:53:42;3.60;99.90
46091;DHT22;31826;53.572;10.170;2023-02-15T11:56:16;3.60;99.90
46091;DHT22;31826;53.572;10.170;2023-02-15T11:58:52;3.70;99.90
46091;DHT22;31826;53.572;10.170;2023-02-15T12:01:38;3.70;99.90
46091;DHT22;31826;53.572;10.170;2023-02-15T12:04:13;3.70;99.90
46091;DHT22;31826;53.572;10.170;2023-02-15T12:06:48;3.70;99.90
46091;DHT22;31826;53.572;10.170;2023-02-15T12:09:20;3.60;99.90
46091;DHT22;31826;53.572;10.170;2023-02-15T12:11:49;3.60;99.90
46091;DHT22;31826;53.572;10.170;2023-02-15T12:14:15;3.70;99.90
46091;DHT22;31826;53.572;10.170;2023-02-15T12:16:54;3.70;99.90
46091;DHT22;31826;53.572;10.170;2023-02-15T12:19:38;3.70;99.90
46091;DHT22;31826;53.572;10.170;2023-02-15T12:22:16;3.90;99.90
46091;DHT22;31826;53.572;10.170;2023-02-15T12:24:47;4.00;99.90
46091;DHT22;31826;53.572;10.170;2023-02-15T12:27:16;4.30;99.90
46091;DHT22;31826;53.572;10.170;2023-02-15T12:29:46;4.30;99.90
46091;DHT22;31826;53.572;10.170;2023-02-15T12:32:31;4.30;99.90
46091;DHT22;31826;53.572;10.170;2023-02-15T12:37:55;4.00;99.90
46091;DHT22;31826;53.572;10.170;2023-02-15T12:40:27;4.00;99.90
46091;DHT22;31826;53.572;10.170;2023-02-15T12:42:54;4.00;99.90
46091;DHT22;31826;53.572;10.170;2023-02-15T12:45:32;4.10;99.90
46091;DHT22;31826;53.572;10.170;2023-02-15T12:48:30;4.10;99.90
46091;DHT22;31826;53.572;10.170;2023-02-15T12:51:07;4.10;99.90
46091;DHT22;31826;53.572;10.170;2023-02-15T12:53:35;4.20;99.90
46091;DHT22;31826;53.572;10.170;2023-02-15T12:56:04;4.10;99.90
46091;DHT22;31826;53.572;10.170;2023-02-15T12:58:35;4.20;99.90
46091;DHT22;31826;53.572;10.170;2023-02-15T13:01:19;4.30;99.90
46091;DHT22;31826;53.572;10.170;2023-02-15T13:06:24;4.40;99.90
46091;DHT22;31826;53.572;10.170;2023-02-15T13:09:52;4.40;99.90
46091;DHT22;31826;53.572;10.170;2023-02-15T13:12:21;4.30;99.90
46091;DHT22;31826;53.572;10.170;2023-02-15T13:14:50;4.20;99.90
46091;DHT22;31826;53.572;10.170;2023-02-15T13:17:20;4.10;99.90
46091;DHT22;31826;53.572;10.170;2023-02-15T13:19:52;4.20;99.90
46091;DHT22;31826;53.572;10.170;2023-02-15T13:22:38;4.30;99.90
46091;DHT22;31826;53.572;10.170;2023-02-15T13:25:22;4.40;99.90
46091;DHT22;31826;53.572;10.170;2023-02-15T13:27:57;4.50;99.90
46091;DHT22;31826;53.572;10.170;2023-02-15T13:30:26;4.60;99.90
46091;DHT22;31826;53.572;10.170;2023-02-15T13:33:04;4.80;99.90
46091;DHT22;31826;53.572;10.170;2023-02-15T13:35:42;4.90;99.90
46091;DHT22;31826;53.572;10.170;2023-02-15T13:38:31;5.00;99.90
46091;DHT22;31826;53.572;10.170;2023-02-15T13:41:12;5.20;99.90
46091;DHT22;31826;53.572;10.170;2023-02-15T13:52:25;5.40;99.90
46091;DHT22;31826;53.572;10.170;2023-02-15T14:06:40;5.40;99.90
46091;DHT22;31826;53.572;10.170;2023-02-15T14:09:23;5.40;99.90
46091;DHT22;31826;53.572;10.170;2023-02-15T14:12:04;5.40;99.90
46091;DHT22;31826;53.572;10.170;2023-02-15T14:20:42;5.50;99.90
46091;DHT22;31826;53.572;10.170;2023-02-15T14:31:47;5.90;99.90
46091;DHT22;31826;53.572;10.170;2023-02-15T14:34:21;6.10;99.90
46091;DHT22;31826;53.572;10.170;2023-02-15T14:36:50;6.00;99.90
46091;DHT22;31826;53.572;10.170;2023-02-15T14:39:31;6.10;99.90
46091;DHT22;31826;53.572;10.170;2023-02-15T14:42:32;6.20;99.90
46091;DHT22;31826;53.572;10.170;2023-02-15T14:45:22;6.10;99.90
46091;DHT22;31826;53.572;10.170;2023-02-15T14:48:12;6.20;99.90
46091;DHT22;31826;53.572;10.170;2023-02-15T14:50:46;6.20;99.90
46091;DHT22;31826;53.572;10.170;2023-02-15T14:53:15;6.20;99.90
46091;DHT22;31826;53.572;10.170;2023-02-15T14:55:41;6.20;99.90
46091;DHT22;31826;53.572;10.170;2023-02-15T14:58:12;6.20;99.90
46091;DHT22;31826;53.572;10.170;2023-02-15T15:00:39;6.10;99.90
46091;DHT22;31826;53.572;10.170;2023-02-15T15:03:20;6.10;99.90
46091;DHT22;31826;53.572;10.170;2023-02-15T15:05:52;6.10;99.90
46091;DHT22;31826;53.572;10.170;2023-02-15T15:08:39;6.10;99.90
46091;DHT22;31826;53.572;10.170;2023-02-15T15:13:58;6.10;99.90
46091;DHT22;31826;53.572;10.170;2023-02-15T15:16:31;6.10;99.90
46091;DHT22;31826;53.572;10.170;2023-02-15T15:19:12;6.10;99.90
46091;DHT22;31826;53.572;10.170;2023-02-15T15:27:45;6.10;99.90
46091;DHT22;31826;53.572;10.170;2023-02-15T15:35:34;6.00;99.90
46091;DHT22;31826;53.572;10.170;2023-02-15T15:49:16;5.90;99.90
46091;DHT22;31826;53.572;10.170;2023-02-15T15:51:44;5.90;99.90
46091;DHT22;31826;53.572;10.170;2023-02-15T15:54:17;5.80;99.90
46091;DHT22;31826;53.572;10.170;2023-02-15T15:56:46;5.80;99.90
46091;DHT22;31826;53.572;10.170;2023-02-15T15:59:21;5.80;99.90
46091;DHT22;31826;53.572;10.170;2023-02-15T16:01:48;5.70;99.90
46091;DHT22;31826;53.572;10.170;2023-02-15T16:04:23;5.70;99.90
46091;DHT22;31826;53.572;10.170;2023-02-15T16:06:50;5.70;99.90
46091;DHT22;31826;53.572;10.170;2023-02-15T16:09:25;5.70;99.90
46091;DHT22;31826;53.572;10.170;2023-02-15T16:11:56;5.70;99.90
46091;DHT22;31826;53.572;10.170;2023-02-15T16:16:57;5.50;99.90
46091;DHT22;31826;53.572;10.170;2023-02-15T16:19:27;5.40;99.90
46091;DHT22;31826;53.572;10.170;2023-02-15T16:21:54;5.40;99.90
46091;DHT22;31826;53.572;10.170;2023-02-15T16:29:33;5.20;99.90
46091;DHT22;31826;53.572;10.170;2023-02-15T16:34:26;5.10;99.90
46091;DHT22;31826;53.572;10.170;2023-02-15T16:37:13;5.10;99.90
46091;DHT22;31826;53.572;10.170;2023-02-15T16:39:42;5.10;99.90
46091;DHT22;31826;53.572;10.170;2023-02-15T16:42:09;5.10;99.90
46091;DHT22;31826;53.572;10.170;2023-02-15T16:44:35;5.10;99.90
46091;DHT22;31826;53.572;10.170;2023-02-15T16:47:01;5.10;99.90
46091;DHT22;31826;53.572;10.170;2023-02-15T16:49:28;5.10;99.90
46091;DHT22;31826;53.572;10.170;2023-02-15T16:52:03;5.00;99.90
46091;DHT22;31826;53.572;10.170;2023-02-15T16:54:32;5.00;99.90
46091;DHT22;31826;53.572;10.170;2023-02-15T16:56:58;5.00;99.90
46091;DHT22;31826;53.572;10.170;2023-02-15T17:01:59;4.90;99.90
46091;DHT22;31826;53.572;10.170;2023-02-15T17:04:29;4.90;99.90
46091;DHT22;31826;53.572;10.170;2023-02-15T17:09:30;4.80;99.90
46091;DHT22;31826;53.572;10.170;2023-02-15T17:11:55;4.70;99.90
46091;DHT22;31826;53.572;10.170;2023-02-15T17:14:37;4.70;99.90
46091;DHT22;31826;53.572;10.170;2023-02-15T17:17:14;4.60;99.90
46091;DHT22;31826;53.572;10.170;2023-02-15T17:19:52;4.50;99.90
46091;DHT22;31826;53.572;10.170;2023-02-15T17:22:25;4.40;99.90
46091;DHT22;31826;53.572;10.170;2023-02-15T17:25:02;4.30;99.90
46091;DHT22;31826;53.572;10.170;2023-02-15T17:27:30;4.30;99.90
46091;DHT22;31826;53.572;10.170;2023-02-15T17:30:01;4.20;99.90
46091;DHT22;31826;53.572;10.170;2023-02-15T17:32:29;4.20;99.90
46091;DHT22;31826;53.572;10.170;2023-02-15T17:35:05;4.20;99.90
46091;DHT22;31826;53.572;10.170;2023-02-15T17:42:39;3.90;99.90
46091;DHT22;31826;53.572;10.170;2023-02-15T17:45:05;4.00;99.90
46091;DHT22;31826;53.572;10.170;2023-02-15T17:47:31;3.90;99.90
46091;DHT22;31826;53.572;10.170;2023-02-15T17:49:57;4.00;99.90
46091;DHT22;31826;53.572;10.170;2023-02-15T17:52:26;3.90;99.90
46091;DHT22;31826;53.572;10.170;2023-02-15T17:54:53;3.70;99.90
46091;DHT22;31826;53.572;10.170;2023-02-15T17:57:37;3.80;99.90
46091;DHT22;31826;53.572;10.170;2023-02-15T18:00:04;3.70;99.90
46091;DHT22;31826;53.572;10.170;2023-02-15T18:02:48;3.60;99.90
46091;DHT22;31826;53.572;10.170;2023-02-15T18:05:32;3.60;99.90
46091;DHT22;31826;53.572;10.170;2023-02-15T18:08:26;3.70;99.90
46091;DHT22;31826;53.572;10.170;2023-02-15T18:11:11;3.60;99.90
46091;DHT22;31826;53.572;10.170;2023-02-15T18:13:55;3.60;99.90
46091;DHT22;31826;53.572;10.170;2023-02-15T18:16:32;3.60;99.90
46091;DHT22;31826;53.572;10.170;2023-02-15T18:18:58;3.60;99.90
46091;DHT22;31826;53.572;10.170;2023-02-15T18:21:24;3.60;99.90
46091;DHT22;31826;53.572;10.170;2023-02-15T18:23:50;3.60;99.90
46091;DHT22;31826;53.572;10.170;2023-02-15T18:26:23;3.50;99.90
46091;DHT22;31826;53.572;10.170;2023-02-15T18:28:50;3.50;99.90
46091;DHT22;31826;53.572;10.170;2023-02-15T18:31:16;3.40;99.90
46091;DHT22;31826;53.572;10.170;2023-02-15T18:33:49;3.40;99.90
46091;DHT22;31826;53.572;10.170;2023-02-15T18:36:21;3.40;99.90
46091;DHT22;31826;53.572;10.170;2023-02-15T18:38:48;3.40;99.90
46091;DHT22;31826;53.572;10.170;2023-02-15T18:41:18;3.40;99.90
46091;DHT22;31826;53.572;10.170;2023-02-15T18:43:46;3.20;99.90
46091;DHT22;31826;53.572;10.170;2023-02-15T18:46:13;3.30;99.90
46091;DHT22;31826;53.572;10.170;2023-02-15T18:48:39;3.20;99.90
46091;DHT22;31826;53.572;10.170;2023-02-15T18:51:11;3.30;99.90
46091;DHT22;31826;53.572;10.170;2023-02-15T18:53:40;3.20;99.90
46091;DHT22;31826;53.572;10.170;2023-02-15T18:56:12;3.20;99.90
46091;DHT22;31826;53.572;10.170;2023-02-15T18:58:39;3.30;99.90
46091;DHT22;31826;53.572;10.170;2023-02-15T19:01:14;3.20;99.90